YVG weather

Vermilion Airport
Vermilion, Alberta, Canada

Public forecast

Using degrees Celsius for public forecast. Weather courtesy of forecast.io.

Closest aviation weather report (METAR) to Vermilion Airport

Closest report is Lloydminster Airport, 27.1 nm (50.1 km) E. Retrieved 2019/10/21 19:00 UTC (41 minutes ago):

CYLL 211900Z 13009KT 10SM FEW003 OVC100 02/01 A2995 RMK SF1AC7 SLP178

Closest aviation forecast (TAF) to Vermilion Airport

Closest forecast is Lloydminster Airport, 27.1 nm (50.1 km) E. Retrieved 2019/10/21 18:45 UTC (56 minutes ago):

TAF TAF CYLL 211743Z 2118/2206 15006KT P6SM FEW008 BKN120 TEMPO 2118/2121 3SM BR FM212100 17010KT P6SM BKN060 FM220400 24006KT P6SM SCT080 RMK NXT FCST BY 220000Z